createdAt,value
2019-02-17T07:04:22.271Z,90.75
2019-02-17T07:05:23.591Z,90.33
2019-02-17T07:06:23.756Z,90.22
2019-02-17T07:07:23.971Z,89.59
2019-02-17T07:08:24.180Z,89.06
2019-02-17T07:09:24.294Z,88.11
2019-02-17T07:10:24.490Z,86.84
2019-02-17T07:11:24.780Z,86.21
2019-02-17T07:12:24.873Z,86.42
2019-02-17T07:13:25.003Z,86.42
2019-02-17T07:14:25.145Z,86.21
2019-02-17T07:15:25.301Z,85.26
2019-02-17T07:16:25.501Z,85.47
2019-02-17T07:17:25.699Z,85.68
2019-02-17T07:18:25.982Z,85.68
2019-02-17T07:19:27.039Z,85.26
2019-02-17T07:20:26.160Z,85.16
2019-02-17T07:21:26.340Z,85.58
2019-02-17T07:22:27.009Z,86.70
2019-02-17T07:23:27.727Z,86.38
2019-02-17T07:24:26.970Z,86.17
2019-02-17T07:25:30.012Z,86.49
2019-02-17T07:26:28.270Z,86.49
2019-02-17T07:27:27.993Z,86.07
2019-02-17T07:28:28.513Z,85.08
2019-02-17T07:29:28.656Z,85.39
2019-02-17T07:30:27.918Z,85.50
2019-02-17T07:31:34.651Z,85.08
2019-02-17T07:32:30.192Z,84.72
2019-02-17T07:33:28.305Z,84.52
2019-02-17T07:34:28.503Z,85.57
2019-02-17T07:35:28.735Z,85.11
2019-02-17T07:36:28.887Z,85.31
2019-02-17T07:37:33.527Z,85.42
2019-02-17T07:38:31.304Z,84.89
2019-02-17T07:39:29.620Z,84.86
2019-02-17T07:40:29.496Z,85.60
2019-02-17T07:41:29.644Z,85.60
2019-02-17T07:42:29.820Z,85.03
2019-02-17T07:43:29.962Z,85.97
2019-02-17T07:44:30.097Z,85.31
2019-02-17T07:45:31.052Z,85.20
2019-02-17T07:46:30.455Z,85.16
2019-02-17T07:47:30.569Z,84.22
2019-02-17T07:48:30.801Z,83.97
2019-02-17T07:49:30.870Z,84.08
2019-02-17T07:50:30.997Z,83.72
2019-02-17T07:51:31.157Z,84.14
2019-02-17T07:52:31.346Z,85.40
2019-02-17T07:53:32.175Z,85.25
2019-02-17T07:54:31.682Z,85.25
2019-02-17T07:55:31.821Z,85.99
2019-02-17T07:56:31.979Z,87.11
2019-02-17T07:57:33.107Z,88.01
2019-02-17T07:58:33.038Z,88.49
2019-02-17T07:59:32.376Z,88.18
2019-02-17T08:00:32.596Z,88.24
2019-02-17T08:01:32.911Z,87.58
2019-02-17T08:02:33.039Z,87.85
2019-02-17T08:03:33.221Z,86.38
2019-02-17T08:04:33.350Z,87.54
2019-02-17T08:05:33.521Z,86.98
2019-02-17T08:06:33.683Z,86.72
2019-02-17T08:07:33.919Z,87.00
2019-02-17T08:08:34.098Z,86.85
2019-02-17T08:09:34.326Z,84.24
2019-02-17T08:10:34.638Z,84.41
2019-02-17T08:11:34.831Z,84.17
2019-02-17T08:12:34.808Z,83.08
2019-02-17T08:13:35.031Z,82.35
2019-02-17T08:14:35.142Z,81.79
2019-02-17T08:15:35.377Z,81.86
2019-02-17T08:16:35.818Z,81.76
2019-02-17T08:17:35.818Z,82.07
2019-02-17T08:18:36.480Z,81.51
2019-02-17T08:19:36.970Z,81.30
2019-02-17T08:20:36.980Z,81.47
2019-02-17T08:21:36.581Z,80.81
2019-02-17T08:22:36.690Z,80.50
2019-02-17T08:23:36.949Z,80.26
2019-02-17T08:24:37.155Z,79.91
2019-02-17T08:25:37.399Z,80.29
2019-02-17T08:26:37.632Z,78.17
2019-02-17T08:27:37.797Z,77.86
2019-02-17T08:28:37.900Z,77.72
2019-02-17T08:29:38.068Z,78.20
2019-02-17T08:30:38.172Z,76.54
2019-02-17T08:31:38.303Z,76.81
2019-02-17T08:32:38.532Z,74.95
2019-02-17T08:33:38.742Z,76.47
2019-02-17T08:34:38.955Z,75.09
2019-02-17T08:35:40.204Z,74.32
2019-02-17T08:36:39.403Z,72.74
2019-02-17T08:37:39.656Z,72.42
2019-02-17T08:38:39.817Z,73.67
2019-02-17T08:39:39.926Z,73.08
2019-02-17T08:40:40.208Z,71.84
2019-02-17T08:41:40.324Z,73.46
2019-02-17T08:42:40.473Z,68.91
2019-02-17T08:43:40.587Z,70.32
2019-02-17T08:44:40.834Z,71.43
2019-02-17T08:45:40.969Z,69.57
2019-02-17T08:46:41.145Z,71.74
2019-02-17T08:47:41.339Z,69.57
2019-02-17T08:48:41.479Z,71.43
2019-02-17T08:49:41.619Z,69.67
2019-02-17T08:50:41.756Z,71.19
2019-02-17T08:51:42.010Z,69.64
2019-02-17T08:52:42.149Z,70.88
2019-02-17T08:53:42.289Z,69.33
2019-02-17T08:54:42.437Z,69.51
2019-02-17T08:55:42.662Z,69.92
2019-02-17T08:56:42.799Z,70.23
2019-02-17T08:57:42.940Z,70.30
2019-02-17T08:58:43.047Z,68.10
2019-02-17T08:59:43.168Z,67.45
2019-02-17T09:15:34.625Z,57.33
2019-02-17T09:16:35.973Z,57.74
2019-02-17T09:17:36.171Z,57.68
2019-02-17T09:18:36.391Z,56.46
2019-02-17T09:19:36.576Z,55.28
2019-02-17T09:20:36.771Z,53.64
2019-02-17T09:21:36.973Z,54.41
2019-02-17T09:22:37.169Z,52.88
2019-02-17T09:23:37.332Z,51.20
2019-02-17T09:24:37.515Z,50.54
2019-02-17T09:25:37.689Z,50.62
2019-02-17T09:26:37.852Z,51.43
2019-02-17T09:27:38.036Z,50.29
2019-02-17T10:10:20.044Z,35.60
2019-02-17T10:11:29.550Z,36.07
2019-02-17T10:12:20.483Z,34.14
2019-02-17T10:13:55.611Z,33.91
2019-02-17T10:14:21.951Z,32.70
2019-02-17T10:15:22.080Z,32.53
2019-02-17T10:16:22.414Z,34.63
2019-02-17T10:17:22.448Z,32.12
2019-02-17T10:18:22.697Z,32.84
2019-02-17T10:19:23.773Z,34.94
2019-02-17T10:20:24.483Z,32.54
2019-02-17T10:21:23.156Z,32.40
2019-02-17T10:22:23.532Z,35.03
2019-02-17T10:23:23.449Z,33.04
2019-02-17T10:24:23.736Z,31.73
2019-02-17T10:25:23.784Z,32.53
2019-02-17T10:26:24.012Z,32.03
2019-02-17T10:27:25.586Z,32.84
2019-02-17T10:28:24.336Z,31.95
2019-02-17T10:29:24.518Z,33.61
2019-02-17T10:30:24.753Z,34.48
2019-02-17T10:31:24.914Z,33.04
2019-02-17T10:32:25.250Z,30.34
2019-02-17T10:33:25.645Z,30.84
2019-02-17T10:34:26.142Z,30.24
2019-02-17T10:35:25.573Z,30.01
2019-02-17T10:36:25.820Z,29.98
2019-02-17T10:37:26.040Z,30.66
2019-02-17T10:38:29.456Z,29.06
2019-02-17T10:39:27.240Z,30.10
2019-02-17T10:40:28.343Z,30.71
2019-02-17T10:41:27.767Z,32.17
2019-02-17T10:42:30.930Z,26.63
2019-02-17T10:43:28.274Z,28.78
2019-02-17T10:44:27.546Z,27.76
2019-02-17T10:45:31.878Z,25.76
2019-02-17T10:46:28.713Z,25.98
2019-02-17T10:47:27.979Z,28.16
2019-02-17T10:48:29.636Z,25.46
2019-02-17T10:49:28.937Z,26.95
2019-02-17T10:50:28.484Z,25.59
2019-02-17T10:51:29.203Z,27.96
2019-02-17T10:52:29.834Z,24.71
2019-02-17T10:53:29.663Z,26.71
2019-02-17T10:54:29.951Z,30.08
2019-02-17T10:55:30.354Z,27.88
2019-02-17T10:56:29.593Z,28.45
2019-02-17T10:57:29.918Z,28.03
2019-02-17T10:58:30.073Z,27.60
2019-02-17T10:59:33.458Z,26.67
2019-02-17T11:30:30.833Z,23.75
2019-02-17T11:31:32.877Z,24.53
2019-02-17T11:32:32.881Z,23.52
2019-02-17T11:33:32.268Z,23.52
2019-02-17T11:34:32.450Z,23.11
2019-02-17T11:35:32.606Z,23.28
2019-02-17T11:36:32.774Z,23.47
2019-02-17T11:37:32.963Z,22.38
2019-02-17T11:38:33.136Z,23.57
2019-02-17T11:39:33.300Z,23.47
2019-02-17T11:40:33.455Z,23.01
2019-02-17T11:41:33.610Z,22.59
2019-02-17T11:42:33.755Z,23.95
2019-02-17T11:43:33.932Z,24.24
2019-02-17T11:44:34.104Z,22.93
2019-02-17T11:45:34.251Z,23.43
2019-02-17T11:46:34.418Z,21.94
2019-02-17T11:47:34.557Z,23.71
2019-02-17T11:48:34.739Z,22.14
2019-02-17T11:49:34.924Z,23.04
2019-02-17T11:50:35.078Z,23.93
2019-02-17T11:51:35.263Z,23.83
2019-02-17T11:52:35.447Z,22.34
2019-02-17T11:53:35.798Z,22.51
2019-02-17T11:54:36.366Z,22.03
2019-02-17T11:55:36.034Z,23.11
2019-02-17T11:56:36.217Z,23.21
2019-02-17T11:57:36.411Z,23.00
2019-02-17T11:58:36.667Z,22.97
2019-02-17T11:59:36.799Z,22.06
2019-02-17T12:00:36.909Z,21.86
2019-02-17T12:01:37.112Z,20.97
2019-02-17T12:02:37.337Z,21.67
2019-02-17T12:03:37.564Z,20.27
2019-02-17T12:04:37.786Z,21.56
2019-02-17T12:05:38.103Z,21.36
2019-02-17T12:06:38.190Z,20.09
2019-02-17T12:07:38.441Z,22.14
2019-02-17T12:08:38.881Z,20.15
2019-02-17T12:09:38.850Z,20.95
2019-02-17T12:10:39.098Z,20.56
2019-02-17T12:11:39.324Z,20.15
2019-02-17T12:12:39.651Z,18.56
2019-02-17T12:13:39.836Z,20.14
2019-02-17T12:14:40.008Z,20.36
2019-02-17T12:15:40.118Z,21.56
2019-02-17T12:16:40.343Z,20.78
2019-02-17T12:17:40.618Z,21.76
2019-02-17T12:18:40.845Z,22.05
2019-02-17T12:19:40.965Z,20.18
2019-02-17T12:20:41.112Z,20.09
2019-02-17T12:21:41.224Z,20.73
2019-02-17T12:22:41.362Z,20.64
2019-02-17T12:23:41.531Z,22.31
2019-02-17T12:24:41.694Z,21.92
2019-02-17T12:25:41.897Z,21.95
2019-02-17T12:26:42.021Z,21.67
2019-02-17T12:27:42.211Z,23.05
2019-02-17T12:28:42.734Z,22.16
2019-02-17T12:29:42.508Z,22.07
2019-02-17T12:30:42.659Z,22.84
2019-02-17T12:31:42.804Z,21.46
2019-02-17T12:32:43.987Z,23.67
2019-02-17T12:33:43.115Z,23.27
2019-02-17T12:34:43.249Z,22.41
2019-02-17T12:35:43.383Z,24.20
2019-02-17T12:36:43.657Z,22.41
2019-02-17T12:37:43.697Z,23.22
2019-02-17T12:38:43.799Z,23.02
2019-02-17T12:39:44.085Z,23.23
2019-02-17T12:40:44.202Z,23.52
2019-02-17T12:41:44.460Z,23.38
2019-02-17T12:42:44.630Z,21.78
2019-02-17T12:43:45.743Z,22.78
2019-02-17T12:44:44.938Z,22.27
2019-02-17T12:45:45.093Z,22.61
2019-02-17T13:06:23.157Z,22.74
2019-02-17T13:07:25.519Z,22.15
2019-02-17T13:08:24.789Z,22.34
2019-02-17T13:09:25.078Z,21.05
2019-02-17T13:10:25.793Z,21.64
2019-02-17T13:11:25.314Z,19.95
2019-02-17T13:12:25.832Z,20.04
2019-02-17T13:13:27.392Z,20.67
2019-02-17T13:14:26.158Z,21.28
2019-02-17T13:15:27.053Z,23.55
2019-02-17T13:16:26.493Z,21.30
2019-02-17T13:17:27.307Z,23.00
2019-02-17T13:18:26.905Z,22.70
2019-02-17T13:19:27.209Z,23.48
2019-02-17T13:20:27.780Z,22.28
2019-02-17T13:21:28.251Z,21.58
2019-02-17T13:22:27.915Z,23.29
2019-02-17T13:23:27.948Z,22.13
2019-02-17T13:24:28.332Z,22.81
2019-02-17T13:25:31.184Z,24.11
2019-02-17T13:26:29.240Z,22.62
2019-02-17T13:27:28.567Z,23.41
2019-02-17T13:28:28.839Z,23.03
2019-02-17T13:29:29.152Z,21.62
2019-02-17T13:30:28.862Z,22.40
2019-02-17T13:31:29.672Z,21.50
2019-02-17T13:32:29.814Z,22.41
2019-02-17T13:33:38.885Z,22.71
2019-02-17T13:34:31.400Z,22.72
2019-02-17T13:35:30.102Z,22.63
2019-02-17T13:36:30.807Z,23.24
2019-02-17T13:37:30.467Z,22.28
2019-02-17T13:38:30.562Z,22.97
2019-02-17T13:39:31.189Z,23.07
2019-02-17T13:40:31.181Z,22.96
2019-02-17T13:41:31.230Z,23.67
2019-02-17T13:42:31.490Z,22.77
2019-02-17T13:43:32.435Z,23.69
2019-02-17T13:44:31.980Z,22.53
2019-02-17T13:45:32.670Z,24.25
2019-02-17T13:46:32.208Z,23.75
2019-02-17T13:47:32.428Z,23.85
2019-02-17T13:48:32.690Z,24.26
2019-02-17T13:49:32.450Z,24.55
2019-02-17T13:50:33.134Z,23.83
2019-02-17T13:51:33.774Z,23.22
2019-02-17T13:52:33.866Z,23.30
2019-02-17T13:53:34.391Z,22.39
2019-02-17T13:54:33.822Z,23.57
2019-02-17T13:55:34.621Z,23.07
2019-02-17T13:56:34.861Z,23.28
2019-02-17T13:57:40.706Z,23.52
2019-02-17T13:58:34.211Z,23.72
2019-02-17T13:59:34.103Z,23.22
2019-02-17T14:00:33.996Z,23.83
2019-02-17T14:01:34.486Z,25.61
2019-02-17T14:02:34.944Z,23.24
2019-02-17T14:03:35.060Z,23.95
